Time;durP1;ratioP1;P1;durP2;ratioP2;P2;SDS_P1;SDS_P2;PMS_P1;PMS_P2;Temp;Humidity;BMP_temperature;BMP_pressure;BME280_temperature;BME280_humidity;BME280_pressure;Samples;Min_cycle;Max_cycle;Signal;HPM_P1;HPM_P2
2023/06/08 00:00:00;;;;;;;25.95;12.25;;;;;;;;;;5101293;27;20137;-71
2023/06/08 00:02:28;;;;;;;22.40;11.93;;;;;;;;;;5117568;27;20122;-71
2023/06/08 00:04:54;;;;;;;20.52;10.90;;;;;;;;;;5111240;27;20053;-71
2023/06/08 00:07:24;;;;;;;20.73;10.85;;;;;;;;;;5113421;27;20071;-71
2023/06/08 00:09:51;;;;;;;17.63;10.18;;;;;;;;;;5097687;27;20100;-71
2023/06/08 00:12:18;;;;;;;21.88;10.60;;;;;;;;;;5097226;27;20043;-71
2023/06/08 00:14:45;;;;;;;16.60;9.18;;;;;;;;;;5115910;27;20115;-71
2023/06/08 00:17:11;;;;;;;20.30;9.02;;;;;;;;;;5113247;27;20051;-71
2023/06/08 00:19:37;;;;;;;19.08;8.50;;;;;;;;;;5116381;27;20046;-71
2023/06/08 00:22:04;;;;;;;16.55;8.65;;;;;;;;;;5131566;27;20555;-71
2023/06/08 00:24:37;;;;;;;18.52;8.30;;;;;;;;;;5114281;27;20050;-71
2023/06/08 00:27:06;;;;;;;14.43;7.40;;;;;;;;;;5114229;27;20105;-71
2023/06/08 00:29:33;;;;;;;14.02;8.02;;;;;;;;;;5120736;27;20079;-71
2023/06/08 00:31:59;;;;;;;20.30;9.43;;;;;;;;;;5126846;27;20039;-71
2023/06/08 00:34:26;;;;;;;16.98;8.77;;;;;;;;;;5114853;27;20119;-71
2023/06/08 00:36:52;;;;;;;22.95;10.52;;;;;;;;;;5133292;27;20139;-71
2023/06/08 00:39:21;;;;;;;14.77;8.73;;;;;;;;;;5110276;27;20473;-71
2023/06/08 00:41:47;;;;;;;18.40;9.00;;;;;;;;;;5130005;27;20122;-71
2023/06/08 00:44:13;;;;;;;20.10;9.40;;;;;;;;;;5112961;27;20363;-71
2023/06/08 00:46:40;;;;;;;21.83;8.65;;;;;;;;;;5133309;27;20050;-71
2023/06/08 00:49:11;;;;;;;26.35;10.55;;;;;;;;;;5115256;27;20061;-71
2023/06/08 00:51:41;;;;;;;18.65;9.40;;;;;;;;;;5115569;27;20104;-71
2023/06/08 00:54:10;;;;;;;15.77;8.82;;;;;;;;;;5109082;27;20051;-71
2023/06/08 00:56:36;;;;;;;18.45;8.80;;;;;;;;;;5094144;27;20046;-71
2023/06/08 00:59:03;;;;;;;19.67;10.20;;;;;;;;;;5124895;27;20059;-71
2023/06/08 01:01:35;;;;;;;18.27;8.70;;;;;;;;;;5140208;27;20043;-71
2023/06/08 01:04:05;;;;;;;20.55;9.15;;;;;;;;;;5118641;27;20092;-71
2023/06/08 01:06:46;;;;;;;20.00;9.40;;;;;;;;;;5132173;27;20043;-71
2023/06/08 01:09:16;;;;;;;21.90;9.60;;;;;;;;;;5121596;27;20126;-71
2023/06/08 01:12:01;;;;;;;18.80;9.73;;;;;;;;;;5129171;27;20082;-71
2023/06/08 01:14:36;;;;;;;15.93;9.02;;;;;;;;;;5123881;27;20039;-71
2023/06/08 01:17:03;;;;;;;19.48;8.70;;;;;;;;;;5101896;27;20043;-71
2023/06/08 01:19:56;;;;;;;22.42;9.57;;;;;;;;;;5103188;27;20558;-71
2023/06/08 01:22:22;;;;;;;17.38;9.90;;;;;;;;;;5103894;27;20047;-71
2023/06/08 01:24:49;;;;;;;19.70;10.15;;;;;;;;;;5118560;27;20039;-71
2023/06/08 01:27:18;;;;;;;20.77;9.20;;;;;;;;;;5132992;27;20398;-71
2023/06/08 01:29:45;;;;;;;22.00;9.52;;;;;;;;;;5130680;27;20471;-71
2023/06/08 01:32:11;;;;;;;19.75;9.90;;;;;;;;;;5126486;27;20491;-71
2023/06/08 01:34:39;;;;;;;17.02;8.98;;;;;;;;;;5110129;27;20078;-72
2023/06/08 01:37:25;;;;;;;21.77;9.10;;;;;;;;;;5116501;27;20388;-72
2023/06/08 01:40:07;;;;;;;19.00;8.52;;;;;;;;;;5118724;27;20550;-72
2023/06/08 01:42:34;;;;;;;17.60;9.07;;;;;;;;;;5132473;27;20383;-72
2023/06/08 01:45:03;;;;;;;24.38;9.02;;;;;;;;;;5117364;27;20078;-72
2023/06/08 01:47:40;;;;;;;17.67;8.80;;;;;;;;;;5121328;27;20517;-72
2023/06/08 01:50:07;;;;;;;17.90;8.70;;;;;;;;;;5120287;27;20549;-72
2023/06/08 01:52:33;;;;;;;25.30;9.82;;;;;;;;;;5121312;27;20043;-72
2023/06/08 01:54:59;;;;;;;17.70;8.95;;;;;;;;;;5117938;27;20051;-72
2023/06/08 01:57:25;;;;;;;17.15;10.45;;;;;;;;;;5126820;27;20127;-72
2023/06/08 01:59:51;;;;;;;22.38;10.27;;;;;;;;;;5122655;27;20031;-72
2023/06/08 02:02:17;;;;;;;23.90;9.63;;;;;;;;;;5122709;27;20122;-72
2023/06/08 02:04:44;;;;;;;17.90;10.27;;;;;;;;;;5124068;27;20050;-72
2023/06/08 02:07:10;;;;;;;17.73;11.23;;;;;;;;;;5129929;27;20140;-71
2023/06/08 02:09:36;;;;;;;20.65;11.00;;;;;;;;;;5115097;27;20076;-72
2023/06/08 02:12:03;;;;;;;21.25;10.95;;;;;;;;;;5111275;27;20446;-72
2023/06/08 02:14:29;;;;;;;22.42;9.57;;;;;;;;;;5111130;27;20051;-72
2023/06/08 02:16:55;;;;;;;23.75;10.38;;;;;;;;;;5129755;27;20035;-72
2023/06/08 02:19:22;;;;;;;17.70;10.35;;;;;;;;;;5094905;27;20435;-71
2023/06/08 02:21:49;;;;;;;16.63;9.85;;;;;;;;;;5127909;27;20050;-72
2023/06/08 02:24:18;;;;;;;14.75;9.45;;;;;;;;;;5116418;27;20476;-72
2023/06/08 02:26:44;;;;;;;20.58;9.93;;;;;;;;;;5125590;27;20047;-72
2023/06/08 02:29:10;;;;;;;19.17;10.18;;;;;;;;;;5109058;27;20139;-72
2023/06/08 02:31:36;;;;;;;20.27;9.00;;;;;;;;;;5115686;27;20048;-71
2023/06/08 02:34:03;;;;;;;20.55;8.85;;;;;;;;;;5128292;27;20096;-72
2023/06/08 02:36:31;;;;;;;15.73;8.18;;;;;;;;;;5104028;27;20061;-71
2023/06/08 02:38:58;;;;;;;25.13;11.07;;;;;;;;;;5129232;27;20036;-72
2023/06/08 02:41:26;;;;;;;15.05;8.63;;;;;;;;;;5112182;27;20054;-72
2023/06/08 02:43:52;;;;;;;17.48;8.68;;;;;;;;;;5124765;27;20046;-71
2023/06/08 02:46:18;;;;;;;20.73;8.30;;;;;;;;;;5135916;27;20489;-72
2023/06/08 02:48:45;;;;;;;20.83;8.68;;;;;;;;;;5113376;27;20111;-71
2023/06/08 02:51:11;;;;;;;16.38;8.18;;;;;;;;;;5126364;27;20039;-72
2023/06/08 02:53:37;;;;;;;20.17;8.18;;;;;;;;;;5139783;27;20129;-71
2023/06/08 02:56:04;;;;;;;18.13;8.93;;;;;;;;;;5103026;27;20725;-72
2023/06/08 02:58:31;;;;;;;15.75;7.70;;;;;;;;;;5134797;27;20385;-72
2023/06/08 03:01:00;;;;;;;16.90;9.07;;;;;;;;;;5118173;27;20039;-72
2023/06/08 03:03:29;;;;;;;16.23;8.63;;;;;;;;;;5112032;27;20410;-71
2023/06/08 03:05:59;;;;;;;17.45;8.38;;;;;;;;;;5089856;27;20124;-71
2023/06/08 03:08:28;;;;;;;16.63;8.50;;;;;;;;;;5112063;27;20503;-71
2023/06/08 03:10:54;;;;;;;20.23;9.85;;;;;;;;;;5110643;27;20520;-72
2023/06/08 03:13:21;;;;;;;23.17;9.45;;;;;;;;;;5105212;27;20036;-72
2023/06/08 03:15:48;;;;;;;16.02;8.50;;;;;;;;;;5092314;27;20061;-71
2023/06/08 03:18:16;;;;;;;19.70;8.45;;;;;;;;;;5111909;27;20116;-71
2023/06/08 03:20:43;;;;;;;16.40;7.05;;;;;;;;;;5136284;27;20143;-72
2023/06/08 03:23:10;;;;;;;17.58;7.00;;;;;;;;;;5109676;27;20081;-72
2023/06/08 03:25:36;;;;;;;16.17;7.03;;;;;;;;;;5108088;27;20119;-71
2023/06/08 03:28:03;;;;;;;17.50;7.15;;;;;;;;;;5107339;27;20043;-72
2023/06/08 03:30:30;;;;;;;12.13;5.72;;;;;;;;;;5110646;27;20051;-72
2023/06/08 03:32:56;;;;;;;16.58;6.07;;;;;;;;;;5110425;27;20036;-72
2023/06/08 03:35:23;;;;;;;16.70;6.50;;;;;;;;;;5092859;27;20058;-72
2023/06/08 03:37:49;;;;;;;14.80;5.80;;;;;;;;;;5138359;27;20075;-72
2023/06/08 03:40:15;;;;;;;19.60;5.78;;;;;;;;;;5094044;28;20051;-72
2023/06/08 03:42:41;;;;;;;23.02;7.68;;;;;;;;;;5108352;27;20122;-71
2023/06/08 03:45:07;;;;;;;12.93;4.97;;;;;;;;;;5123101;27;20043;-72
2023/06/08 03:47:34;;;;;;;12.35;5.05;;;;;;;;;;5093699;28;20055;-71
2023/06/08 03:50:00;;;;;;;13.77;5.68;;;;;;;;;;5126886;27;20051;-72
2023/06/08 03:52:26;;;;;;;12.75;5.88;;;;;;;;;;5100591;28;21632;-72
2023/06/08 03:54:52;;;;;;;14.18;5.80;;;;;;;;;;5113444;27;20340;-72
2023/06/08 03:57:18;;;;;;;22.15;6.65;;;;;;;;;;5130692;27;20155;-71
2023/06/08 03:59:44;;;;;;;16.02;5.40;;;;;;;;;;5092887;28;20038;-71
2023/06/08 04:02:10;;;;;;;18.15;5.85;;;;;;;;;;5111806;28;20054;-72
2023/06/08 04:04:39;;;;;;;14.77;5.32;;;;;;;;;;5109426;28;20054;-72
2023/06/08 04:07:05;;;;;;;16.25;6.43;;;;;;;;;;5113136;28;20039;-72
2023/06/08 04:09:31;;;;;;;19.85;6.32;;;;;;;;;;5133551;27;20134;-72
2023/06/08 04:11:57;;;;;;;14.02;5.47;;;;;;;;;;5107862;28;20044;-72
2023/06/08 04:14:24;;;;;;;12.13;4.93;;;;;;;;;;5104926;28;20043;-72
2023/06/08 04:16:50;;;;;;;11.18;4.55;;;;;;;;;;5109636;28;20043;-71
2023/06/08 04:19:17;;;;;;;18.23;5.78;;;;;;;;;;5104062;28;20039;-71
2023/06/08 04:21:43;;;;;;;17.35;4.75;;;;;;;;;;5130146;28;20035;-72
2023/06/08 04:24:09;;;;;;;12.85;4.80;;;;;;;;;;5130206;27;20107;-72
2023/06/08 04:26:36;;;;;;;13.10;4.88;;;;;;;;;;5112185;28;20071;-72
2023/06/08 04:29:03;;;;;;;17.73;6.45;;;;;;;;;;5112178;28;20138;-72
2023/06/08 04:31:30;;;;;;;13.70;4.90;;;;;;;;;;5116749;28;20142;-72
2023/06/08 04:33:57;;;;;;;15.13;5.07;;;;;;;;;;5104938;28;20055;-71
2023/06/08 04:36:23;;;;;;;9.52;4.22;;;;;;;;;;5118198;28;20512;-72
2023/06/08 04:38:49;;;;;;;21.10;5.30;;;;;;;;;;5127656;27;20482;-72
2023/06/08 04:41:18;;;;;;;19.55;5.30;;;;;;;;;;5113727;28;20435;-72
2023/06/08 04:43:45;;;;;;;15.05;4.55;;;;;;;;;;5099860;27;20101;-72
2023/06/08 04:46:12;;;;;;;12.82;4.28;;;;;;;;;;5128702;27;20036;-69
2023/06/08 04:48:39;;;;;;;16.30;5.05;;;;;;;;;;5128933;27;20131;-69
2023/06/08 04:51:09;;;;;;;16.23;5.53;;;;;;;;;;5127679;27;20126;-71
2023/06/08 04:53:35;;;;;;;19.65;5.43;;;;;;;;;;5123847;27;20055;-72
2023/06/08 04:56:02;;;;;;;16.50;4.88;;;;;;;;;;5141764;27;20453;-72
2023/06/08 04:58:29;;;;;;;19.13;5.82;;;;;;;;;;5139288;27;20046;-72
2023/06/08 05:00:56;;;;;;;19.17;5.40;;;;;;;;;;5132745;27;20039;-72
2023/06/08 05:03:22;;;;;;;18.08;5.40;;;;;;;;;;5114936;27;20071;-72
2023/06/08 05:05:49;;;;;;;18.40;5.18;;;;;;;;;;5132237;27;20559;-72
2023/06/08 05:08:15;;;;;;;13.80;5.25;;;;;;;;;;5131592;27;20086;-71
2023/06/08 05:10:41;;;;;;;15.35;5.35;;;;;;;;;;5120850;27;20534;-72
2023/06/08 05:13:07;;;;;;;17.92;5.50;;;;;;;;;;5126534;27;20378;-69
2023/06/08 05:15:33;;;;;;;12.40;4.05;;;;;;;;;;5119066;27;20058;-71
2023/06/08 05:18:00;;;;;;;13.20;4.65;;;;;;;;;;5109513;27;20071;-70
2023/06/08 05:20:28;;;;;;;17.65;5.95;;;;;;;;;;5133241;27;20432;-72
2023/06/08 05:22:54;;;;;;;12.73;4.47;;;;;;;;;;5114067;27;20504;-71
2023/06/08 05:25:20;;;;;;;14.13;4.40;;;;;;;;;;5119674;27;20047;-71
2023/06/08 05:27:47;;;;;;;14.32;4.82;;;;;;;;;;5130217;27;20141;-71
2023/06/08 05:30:13;;;;;;;13.82;4.10;;;;;;;;;;5114721;27;20058;-71
2023/06/08 05:32:39;;;;;;;16.52;4.43;;;;;;;;;;5123931;27;20107;-72
2023/06/08 05:35:06;;;;;;;15.48;4.80;;;;;;;;;;5115876;27;20104;-72
2023/06/08 05:37:32;;;;;;;13.23;4.70;;;;;;;;;;5112840;27;20051;-68
2023/06/08 05:39:58;;;;;;;17.15;4.97;;;;;;;;;;5135749;27;20039;-71
2023/06/08 05:42:25;;;;;;;13.30;4.47;;;;;;;;;;5111602;27;20092;-72
2023/06/08 05:44:51;;;;;;;15.90;4.97;;;;;;;;;;5114931;27;20058;-72
2023/06/08 05:47:17;;;;;;;16.50;5.20;;;;;;;;;;5136913;27;20033;-72
2023/06/08 05:49:43;;;;;;;13.82;5.38;;;;;;;;;;5115356;27;20154;-72
2023/06/08 05:52:09;;;;;;;15.48;4.97;;;;;;;;;;5138038;27;20080;-72
2023/06/08 05:54:36;;;;;;;14.48;4.63;;;;;;;;;;5123476;27;20165;-72
2023/06/08 05:57:02;;;;;;;14.35;5.00;;;;;;;;;;5118860;27;20040;-72
2023/06/08 05:59:28;;;;;;;16.48;5.00;;;;;;;;;;5105669;27;20401;-72
2023/06/08 06:01:54;;;;;;;19.17;4.75;;;;;;;;;;5111651;27;20126;-72
2023/06/08 06:04:21;;;;;;;18.10;5.78;;;;;;;;;;5115590;27;20072;-71
2023/06/08 06:06:47;;;;;;;13.80;4.47;;;;;;;;;;5100947;27;20482;-71
2023/06/08 06:09:13;;;;;;;14.93;4.72;;;;;;;;;;5114409;27;20451;-71
2023/06/08 06:11:39;;;;;;;15.23;5.18;;;;;;;;;;5134152;27;20459;-71
2023/06/08 06:14:05;;;;;;;12.88;5.18;;;;;;;;;;5137892;27;20502;-71
2023/06/08 06:16:32;;;;;;;16.15;5.07;;;;;;;;;;5128021;27;20127;-73
2023/06/08 06:18:58;;;;;;;19.25;5.47;;;;;;;;;;5132064;27;20110;-73
2023/06/08 06:21:25;;;;;;;12.18;4.38;;;;;;;;;;5100584;27;20047;-77
2023/06/08 06:23:51;;;;;;;13.27;5.28;;;;;;;;;;5113661;27;20474;-73
2023/06/08 06:26:17;;;;;;;16.85;5.18;;;;;;;;;;5113636;27;20035;-73
2023/06/08 06:28:44;;;;;;;13.60;4.45;;;;;;;;;;5120065;27;20055;-73
2023/06/08 06:31:10;;;;;;;10.95;3.90;;;;;;;;;;5092954;27;20100;-73
2023/06/08 06:33:36;;;;;;;16.73;4.25;;;;;;;;;;5161325;27;20086;-73
2023/06/08 06:36:03;;;;;;;15.45;4.07;;;;;;;;;;5133832;27;20095;-73
2023/06/08 06:38:29;;;;;;;12.40;3.95;;;;;;;;;;5109648;27;20045;-73
2023/06/08 06:40:55;;;;;;;14.45;3.72;;;;;;;;;;5115402;27;20035;-73
2023/06/08 06:43:21;;;;;;;15.27;4.82;;;;;;;;;;5133011;27;20063;-73
2023/06/08 06:45:51;;;;;;;13.02;4.47;;;;;;;;;;5124629;27;20039;-73
2023/06/08 06:48:21;;;;;;;14.32;5.40;;;;;;;;;;5128291;27;20051;-73
2023/06/08 06:50:48;;;;;;;15.43;4.28;;;;;;;;;;5132686;27;20041;-73
2023/06/08 06:53:14;;;;;;;12.27;4.70;;;;;;;;;;5114827;27;20043;-73
2023/06/08 06:55:41;;;;;;;15.23;4.60;;;;;;;;;;5113607;27;20047;-73
2023/06/08 06:58:08;;;;;;;17.00;5.50;;;;;;;;;;5113068;27;20105;-73
2023/06/08 07:00:37;;;;;;;12.48;4.95;;;;;;;;;;5115807;27;20498;-73
2023/06/08 07:03:07;;;;;;;16.88;5.05;;;;;;;;;;5122504;27;20054;-73
2023/06/08 07:05:34;;;;;;;12.77;5.05;;;;;;;;;;5132129;27;20118;-73
2023/06/08 07:08:01;;;;;;;14.80;4.47;;;;;;;;;;5112521;27;20051;-73
2023/06/08 07:10:27;;;;;;;13.55;5.20;;;;;;;;;;5114537;27;20097;-73
2023/06/08 07:12:53;;;;;;;15.77;4.15;;;;;;;;;;5131586;27;20043;-73
2023/06/08 07:15:20;;;;;;;22.17;6.32;;;;;;;;;;5114484;27;20039;-73
2023/06/08 07:17:46;;;;;;;15.88;4.15;;;;;;;;;;5110133;27;20756;-73
2023/06/08 07:20:13;;;;;;;14.82;4.95;;;;;;;;;;5123400;27;20361;-73
2023/06/08 07:22:40;;;;;;;13.93;4.88;;;;;;;;;;5136716;27;20433;-73
2023/06/08 07:25:06;;;;;;;14.13;4.07;;;;;;;;;;5119226;27;20046;-73
2023/06/08 07:27:32;;;;;;;15.80;4.90;;;;;;;;;;5112424;27;20111;-73
2023/06/08 07:29:59;;;;;;;15.23;4.82;;;;;;;;;;5118200;27;20503;-73
2023/06/08 07:32:29;;;;;;;12.10;4.60;;;;;;;;;;5116226;27;20489;-73
2023/06/08 07:34:55;;;;;;;14.35;4.47;;;;;;;;;;5116429;27;20062;-73
2023/06/08 07:37:21;;;;;;;15.63;4.20;;;;;;;;;;5124334;27;20137;-73
2023/06/08 07:39:47;;;;;;;13.93;4.22;;;;;;;;;;5117384;28;20134;-73
2023/06/08 07:42:14;;;;;;;14.65;5.07;;;;;;;;;;5113668;28;20367;-73
2023/06/08 07:44:40;;;;;;;8.65;3.35;;;;;;;;;;5114318;28;20062;-73
2023/06/08 07:47:06;;;;;;;8.45;4.13;;;;;;;;;;5113117;28;20175;-73
2023/06/08 07:49:32;;;;;;;14.00;4.45;;;;;;;;;;5114487;28;20126;-73
2023/06/08 07:51:58;;;;;;;19.27;4.90;;;;;;;;;;5131819;27;20056;-73
2023/06/08 07:54:25;;;;;;;13.77;4.38;;;;;;;;;;5113312;28;20082;-73
2023/06/08 07:56:51;;;;;;;15.43;4.25;;;;;;;;;;5114259;28;20067;-73
2023/06/08 07:59:17;;;;;;;13.77;4.80;;;;;;;;;;5131582;27;20039;-73
2023/06/08 08:01:44;;;;;;;9.82;4.22;;;;;;;;;;5132928;27;20402;-73
2023/06/08 08:04:10;;;;;;;12.55;4.97;;;;;;;;;;5132242;27;20382;-73
2023/06/08 08:06:37;;;;;;;15.90;5.10;;;;;;;;;;5114325;28;20039;-73
2023/06/08 08:09:03;;;;;;;12.23;5.10;;;;;;;;;;5113248;28;20395;-73
2023/06/08 08:11:29;;;;;;;10.77;4.70;;;;;;;;;;5112009;28;20039;-73
2023/06/08 08:13:56;;;;;;;10.35;3.92;;;;;;;;;;5113793;28;20450;-73
2023/06/08 08:16:22;;;;;;;16.17;4.25;;;;;;;;;;5130895;27;20031;-73
2023/06/08 08:18:48;;;;;;;13.93;4.25;;;;;;;;;;5136834;27;20426;-73
2023/06/08 08:21:15;;;;;;;13.32;4.72;;;;;;;;;;5136432;27;20031;-73
2023/06/08 08:23:41;;;;;;;13.60;4.50;;;;;;;;;;5117080;27;20178;-73
2023/06/08 08:26:07;;;;;;;16.73;4.63;;;;;;;;;;5144515;27;20398;-73
2023/06/08 08:28:37;;;;;;;15.27;4.88;;;;;;;;;;5117752;27;20428;-73
2023/06/08 08:31:03;;;;;;;16.58;4.78;;;;;;;;;;5115983;27;20043;-73
2023/06/08 08:33:30;;;;;;;13.63;5.72;;;;;;;;;;5138788;27;20053;-73
2023/06/08 08:35:56;;;;;;;16.83;5.07;;;;;;;;;;5117514;27;20504;-73
2023/06/08 08:38:22;;;;;;;11.35;4.85;;;;;;;;;;5118724;27;20059;-73
2023/06/08 08:40:51;;;;;;;16.05;4.75;;;;;;;;;;5146863;27;20031;-73
2023/06/08 08:43:24;;;;;;;13.88;4.95;;;;;;;;;;5116894;27;20050;-73
2023/06/08 08:45:50;;;;;;;13.37;4.57;;;;;;;;;;5134628;27;20177;-73
2023/06/08 08:48:19;;;;;;;14.75;4.38;;;;;;;;;;5118069;27;20309;-73
2023/06/08 08:50:49;;;;;;;16.83;5.13;;;;;;;;;;5132646;27;20046;-73
2023/06/08 08:53:16;;;;;;;17.77;5.30;;;;;;;;;;5105095;27;20038;-73
2023/06/08 08:55:48;;;;;;;14.20;4.95;;;;;;;;;;5152875;27;20046;-73
2023/06/08 08:58:18;;;;;;;9.65;4.43;;;;;;;;;;5126933;27;20103;-73
2023/06/08 09:00:51;;;;;;;16.10;4.93;;;;;;;;;;5124732;27;20035;-73
2023/06/08 09:03:17;;;;;;;15.40;5.22;;;;;;;;;;5119558;27;20134;-73
2023/06/08 09:05:43;;;;;;;15.85;4.35;;;;;;;;;;5140447;27;20087;-73
2023/06/08 09:08:10;;;;;;;9.38;3.65;;;;;;;;;;5134946;27;20082;-73
2023/06/08 09:10:36;;;;;;;16.52;4.35;;;;;;;;;;5135217;27;20043;-73
2023/06/08 09:13:03;;;;;;;11.98;4.70;;;;;;;;;;5135035;27;20039;-73
2023/06/08 09:15:34;;;;;;;11.75;4.38;;;;;;;;;;5116689;27;20039;-73
2023/06/08 09:18:02;;;;;;;11.43;4.20;;;;;;;;;;5121176;27;20043;-73
2023/06/08 09:20:29;;;;;;;8.98;3.45;;;;;;;;;;5138713;27;20047;-73
2023/06/08 09:22:55;;;;;;;11.75;4.10;;;;;;;;;;5131226;27;20042;-69
2023/06/08 09:25:42;;;;;;;15.25;5.28;;;;;;;;;;5134641;27;20395;-68
2023/06/08 09:28:31;;;;;;;13.05;3.95;;;;;;;;;;5121407;27;20051;-67
2023/06/08 09:30:58;;;;;;;14.55;4.65;;;;;;;;;;5111261;27;20058;-67
2023/06/08 09:33:25;;;;;;;15.15;4.40;;;;;;;;;;5130584;27;20183;-67
2023/06/08 09:35:58;;;;;;;12.60;3.90;;;;;;;;;;5114969;27;20039;-67
2023/06/08 09:38:27;;;;;;;14.23;4.18;;;;;;;;;;5114609;27;20047;-70
2023/06/08 09:41:14;;;;;;;20.85;7.32;;;;;;;;;;5127287;27;20045;-70
2023/06/08 09:43:42;;;;;;;9.35;4.10;;;;;;;;;;5106628;27;20062;-70
2023/06/08 09:46:11;;;;;;;11.35;4.22;;;;;;;;;;5122841;27;20131;-70
2023/06/08 09:48:40;;;;;;;13.25;4.63;;;;;;;;;;5133637;27;20066;-70
2023/06/08 09:51:09;;;;;;;11.02;4.93;;;;;;;;;;5116196;27;20054;-70
2023/06/08 09:53:36;;;;;;;11.25;4.57;;;;;;;;;;5115510;27;20047;-70
2023/06/08 09:56:05;;;;;;;12.38;4.75;;;;;;;;;;5117356;27;20589;-69
2023/06/08 09:58:35;;;;;;;9.90;4.03;;;;;;;;;;5096683;27;20046;-70
2023/06/08 10:01:06;;;;;;;12.63;3.65;;;;;;;;;;5118164;27;20480;-70
2023/06/08 10:03:38;;;;;;;7.97;3.33;;;;;;;;;;5149364;27;20105;-86
2023/06/08 10:06:07;;;;;;;9.18;3.65;;;;;;;;;;5100168;27;20098;-70
2023/06/08 10:08:33;;;;;;;14.15;4.60;;;;;;;;;;5135313;27;20049;-70
2023/06/08 10:11:00;;;;;;;10.63;3.90;;;;;;;;;;5134270;27;20519;-70
2023/06/08 10:13:27;;;;;;;13.80;3.67;;;;;;;;;;5127965;27;20039;-69
2023/06/08 10:15:53;;;;;;;10.43;4.30;;;;;;;;;;5134676;27;20508;-69
2023/06/08 10:18:19;;;;;;;10.10;4.20;;;;;;;;;;5132300;27;20444;-69
2023/06/08 10:20:46;;;;;;;10.68;4.30;;;;;;;;;;5121279;27;20111;-72
2023/06/08 10:23:12;;;;;;;9.25;4.13;;;;;;;;;;5132227;27;20039;-73
2023/06/08 10:25:41;;;;;;;9.95;4.72;;;;;;;;;;5114741;27;20110;-73
2023/06/08 10:28:08;;;;;;;10.48;4.30;;;;;;;;;;5114693;27;20479;-73
2023/06/08 10:30:42;;;;;;;14.27;4.32;;;;;;;;;;5112674;27;20788;-73
2023/06/08 10:33:11;;;;;;;13.63;4.32;;;;;;;;;;5101217;27;20369;-73
2023/06/08 10:35:40;;;;;;;9.18;3.63;;;;;;;;;;5111117;27;20529;-73
2023/06/08 10:38:12;;;;;;;8.15;3.75;;;;;;;;;;5119054;27;20396;-73
2023/06/08 10:40:46;;;;;;;15.63;4.57;;;;;;;;;;5111370;27;20039;-72
2023/06/08 10:43:13;;;;;;;11.52;3.95;;;;;;;;;;5096004;27;20347;-73
2023/06/08 10:45:40;;;;;;;10.23;4.40;;;;;;;;;;5122598;27;20575;-73
2023/06/08 10:48:10;;;;;;;8.55;3.58;;;;;;;;;;5112983;27;20382;-73
2023/06/08 10:50:37;;;;;;;11.07;4.00;;;;;;;;;;5113993;27;20075;-73
2023/06/08 10:53:04;;;;;;;13.00;4.28;;;;;;;;;;5115235;27;20368;-73
2023/06/08 10:55:30;;;;;;;10.18;3.75;;;;;;;;;;5118334;27;20059;-73
2023/06/08 10:58:07;;;;;;;10.82;3.88;;;;;;;;;;5117035;27;20398;-73
2023/06/08 11:00:35;;;;;;;11.95;3.58;;;;;;;;;;5131194;27;20039;-73
2023/06/08 11:03:04;;;;;;;10.23;4.35;;;;;;;;;;5132678;27;20047;-73
2023/06/08 11:05:34;;;;;;;9.10;2.70;;;;;;;;;;5119424;27;20336;-73
2023/06/08 11:08:01;;;;;;;8.45;2.28;;;;;;;;;;5121516;27;20062;-73
2023/06/08 11:10:27;;;;;;;9.23;3.05;;;;;;;;;;5110913;27;20084;-73
2023/06/08 11:12:54;;;;;;;8.20;3.35;;;;;;;;;;5128275;27;20074;-73
2023/06/08 11:15:21;;;;;;;8.20;2.53;;;;;;;;;;5131543;27;20095;-73
2023/06/08 11:17:52;;;;;;;7.55;2.33;;;;;;;;;;5129214;27;20042;-73
2023/06/08 11:20:23;;;;;;;7.15;2.50;;;;;;;;;;5129992;27;20554;-73
2023/06/08 11:22:50;;;;;;;7.85;2.28;;;;;;;;;;5130516;27;20049;-71
2023/06/08 11:25:19;;;;;;;11.13;2.30;;;;;;;;;;5121177;27;20050;-74
2023/06/08 11:27:45;;;;;;;10.95;2.65;;;;;;;;;;5108524;27;20039;-76
2023/06/08 11:30:18;;;;;;;9.65;2.75;;;;;;;;;;5146983;27;20051;-73
2023/06/08 11:32:46;;;;;;;6.55;2.58;;;;;;;;;;5095483;28;20402;-73
2023/06/08 11:35:13;;;;;;;9.98;2.80;;;;;;;;;;5124315;27;20040;-73
2023/06/08 11:37:41;;;;;;;9.07;3.00;;;;;;;;;;5117773;27;20123;-73
2023/06/08 11:40:11;;;;;;;8.23;2.75;;;;;;;;;;5134789;27;20401;-77
2023/06/08 11:42:37;;;;;;;9.52;3.20;;;;;;;;;;5110404;28;20146;-73
2023/06/08 11:45:05;;;;;;;5.97;2.53;;;;;;;;;;5113453;27;20048;-73
2023/06/08 11:47:31;;;;;;;6.72;3.17;;;;;;;;;;5112158;27;20043;-73
2023/06/08 11:49:57;;;;;;;9.55;3.17;;;;;;;;;;5119365;27;20040;-73
2023/06/08 11:52:27;;;;;;;10.07;2.97;;;;;;;;;;5132140;27;20540;-73
2023/06/08 11:55:01;;;;;;;7.60;2.72;;;;;;;;;;5116832;27;20078;-73
2023/06/08 11:57:41;;;;;;;7.68;2.60;;;;;;;;;;5135436;27;20043;-73
2023/06/08 12:00:09;;;;;;;9.48;3.22;;;;;;;;;;5125344;27;20049;-73
2023/06/08 12:02:36;;;;;;;10.30;3.20;;;;;;;;;;5123175;27;20371;-73
2023/06/08 12:05:03;;;;;;;10.68;3.33;;;;;;;;;;5135284;27;20058;-73
2023/06/08 12:07:30;;;;;;;12.85;2.97;;;;;;;;;;5117435;27;20047;-73
2023/06/08 12:09:56;;;;;;;5.40;2.58;;;;;;;;;;5118385;27;20047;-73
2023/06/08 12:12:28;;;;;;;7.70;2.05;;;;;;;;;;5118176;27;20045;-73
2023/06/08 12:14:55;;;;;;;8.32;2.60;;;;;;;;;;5133062;27;20187;-73
2023/06/08 12:17:25;;;;;;;9.40;3.10;;;;;;;;;;5126551;27;20140;-72
2023/06/08 12:19:53;;;;;;;7.53;2.75;;;;;;;;;;5106297;27;20050;-72
2023/06/08 12:22:19;;;;;;;8.98;2.13;;;;;;;;;;5136525;27;20042;-72
2023/06/08 12:24:46;;;;;;;11.82;2.90;;;;;;;;;;5122330;27;20096;-73
2023/06/08 12:27:12;;;;;;;6.78;2.70;;;;;;;;;;5141334;27;20035;-73
2023/06/08 12:29:39;;;;;;;7.38;3.10;;;;;;;;;;5140367;27;20502;-73
2023/06/08 12:32:06;;;;;;;9.30;2.53;;;;;;;;;;5121718;27;20046;-72
2023/06/08 12:34:33;;;;;;;6.70;2.22;;;;;;;;;;5114570;27;20043;-72
2023/06/08 12:36:59;;;;;;;7.80;2.58;;;;;;;;;;5140399;27;20061;-72
2023/06/08 12:39:25;;;;;;;6.55;2.30;;;;;;;;;;5139915;27;20446;-72
2023/06/08 12:41:51;;;;;;;9.65;3.00;;;;;;;;;;5142935;27;20054;-73
2023/06/08 12:44:18;;;;;;;8.63;2.08;;;;;;;;;;5142175;27;20042;-73
2023/06/08 12:46:44;;;;;;;5.97;1.90;;;;;;;;;;5143725;27;20115;-73
2023/06/08 12:49:10;;;;;;;9.23;2.13;;;;;;;;;;5111475;27;20065;-73
2023/06/08 12:51:37;;;;;;;5.25;1.98;;;;;;;;;;5120108;27;20054;-73
2023/06/08 12:54:03;;;;;;;8.85;2.33;;;;;;;;;;5132189;27;20092;-70
2023/06/08 12:56:29;;;;;;;6.28;1.90;;;;;;;;;;5133607;27;20135;-72
2023/06/08 12:58:55;;;;;;;7.72;2.63;;;;;;;;;;5117598;27;20054;-73
2023/06/08 13:01:22;;;;;;;10.18;2.38;;;;;;;;;;5135590;27;20047;-73
2023/06/08 13:03:48;;;;;;;8.65;2.40;;;;;;;;;;5134136;27;20043;-73
2023/06/08 13:06:14;;;;;;;6.07;2.25;;;;;;;;;;5108035;27;20053;-73
2023/06/08 13:08:41;;;;;;;5.22;1.75;;;;;;;;;;5123919;27;20055;-73
2023/06/08 13:11:07;;;;;;;13.85;2.50;;;;;;;;;;5116232;27;20509;-73
2023/06/08 13:13:33;;;;;;;7.20;1.88;;;;;;;;;;5116429;27;20390;-70
2023/06/08 13:16:01;;;;;;;7.05;2.58;;;;;;;;;;5115180;27;20423;-70
2023/06/08 13:18:27;;;;;;;6.55;2.15;;;;;;;;;;5112920;27;20047;-69
2023/06/08 13:20:53;;;;;;;6.60;1.73;;;;;;;;;;5114619;27;20083;-71
2023/06/08 13:23:24;;;;;;;7.82;2.17;;;;;;;;;;5141590;27;20085;-70
2023/06/08 13:25:51;;;;;;;9.90;2.83;;;;;;;;;;5136615;27;20047;-70
2023/06/08 13:28:17;;;;;;;5.70;2.28;;;;;;;;;;5113500;27;20062;-70
2023/06/08 13:30:44;;;;;;;11.15;2.95;;;;;;;;;;5112439;27;20540;-71
2023/06/08 13:33:10;;;;;;;10.60;3.15;;;;;;;;;;5099164;27;20379;-71
2023/06/08 13:35:43;;;;;;;8.18;2.95;;;;;;;;;;5115620;27;20046;-70
2023/06/08 13:38:11;;;;;;;10.70;3.10;;;;;;;;;;5113968;28;20119;-70
2023/06/08 13:40:38;;;;;;;7.03;2.92;;;;;;;;;;5113219;28;20040;-70
2023/06/08 13:43:06;;;;;;;8.20;2.70;;;;;;;;;;5110937;27;20043;-69
2023/06/08 13:45:34;;;;;;;7.47;2.70;;;;;;;;;;5109070;27;20047;-70
2023/06/08 13:48:01;;;;;;;8.45;3.00;;;;;;;;;;5120588;27;20454;-70
2023/06/08 13:50:27;;;;;;;8.60;3.65;;;;;;;;;;5112704;28;20479;-71
2023/06/08 13:52:57;;;;;;;12.80;3.70;;;;;;;;;;5109050;27;20054;-70
2023/06/08 13:55:32;;;;;;;10.00;3.83;;;;;;;;;;5113597;27;20039;-70
2023/06/08 13:57:59;;;;;;;10.38;3.30;;;;;;;;;;5111718;27;20050;-71
2023/06/08 14:00:27;;;;;;;6.93;2.42;;;;;;;;;;5108091;28;20050;-70
2023/06/08 14:02:53;;;;;;;14.13;3.55;;;;;;;;;;5110096;28;20047;-70
2023/06/08 14:05:20;;;;;;;8.63;3.22;;;;;;;;;;5104029;28;20532;-70
2023/06/08 14:07:47;;;;;;;8.70;2.80;;;;;;;;;;5122702;27;20032;-70
2023/06/08 14:10:13;;;;;;;11.18;3.30;;;;;;;;;;5106483;27;20058;-71
2023/06/08 14:12:40;;;;;;;9.65;2.67;;;;;;;;;;5116778;27;20047;-70
2023/06/08 14:15:07;;;;;;;8.98;2.90;;;;;;;;;;5116483;27;20487;-70
2023/06/08 14:17:33;;;;;;;8.13;2.58;;;;;;;;;;5114402;27;20126;-70
2023/06/08 14:19:59;;;;;;;7.55;2.97;;;;;;;;;;5111448;28;20444;-70
2023/06/08 14:22:26;;;;;;;9.70;3.20;;;;;;;;;;5109901;28;20039;-70
2023/06/08 14:24:52;;;;;;;8.48;3.13;;;;;;;;;;5145115;27;20122;-70
2023/06/08 14:27:19;;;;;;;11.95;3.97;;;;;;;;;;5111112;27;20109;-67
2023/06/08 14:29:46;;;;;;;9.07;4.05;;;;;;;;;;5132494;27;20455;-68
2023/06/08 14:32:12;;;;;;;12.45;4.03;;;;;;;;;;5114935;27;20062;-67
2023/06/08 14:34:38;;;;;;;11.13;3.95;;;;;;;;;;5131186;27;20035;-68